Tuesday, June 30, 2015, 9:49 PM EDT

KEZF, Fredericksburg, Shannon Airport

Location: Fredericksburg, VA, United States Lat: 38.267
Local Time: 9:49 PM EDT ( 1:49 GMT) Lon: -77.45
Time Zone: US/Eastern Elev: 85 ft

Show me the last for .
Show Decoded

2015-06-30 20:15 METAR KEZF 010015Z AUTO 17003KT 10SM CLR 28/22 A2980 RMK AO2 T02810221 =
2015-06-30 19:55 METAR KEZF 302355Z AUTO 19004KT 10SM CLR 29/22 A2981 RMK AO2 T02920216 10325
                 20291 =
2015-06-30 19:35 METAR KEZF 302335Z AUTO 17004KT 10SM CLR 30/21 A2981 RMK AO2 T03000210 =
2015-06-30 19:15 METAR KEZF 302315Z AUTO 21006KT 10SM CLR 30/20 A2980 RMK AO2 T03010203 =
2015-06-30 18:55 METAR KEZF 302255Z AUTO 22009KT 10SM CLR 31/20 A2980 RMK AO2 T03070201 =
2015-06-30 18:35 METAR KEZF 302235Z AUTO 21007KT 10SM CLR 31/20 A2980 RMK AO2 T03100200 =
2015-06-30 17:55 METAR KEZF 302155Z AUTO 22009G14KT 10SM CLR 31/19 A2980 RMK AO2 T03110189 =
2015-06-30 17:35 METAR KEZF 302135Z AUTO 22007G16KT 10SM CLR 31/19 A2980 RMK AO2 T03120191 =
2015-06-30 17:15 METAR KEZF 302115Z AUTO 24012G16KT 10SM CLR 32/20 A2979 RMK AO2 T03150195 =
2015-06-30 16:55 METAR KEZF 302055Z AUTO 22013G16KT 10SM SCT048 32/20 A2980 RMK AO2 T03200200 =
2015-06-30 16:35 METAR KEZF 302035Z AUTO 19010G15KT 10SM CLR 32/20 A2979 RMK AO2 T03220198 =
2015-06-30 16:15 METAR KEZF 302015Z AUTO 20008KT 10SM CLR 32/20 A2981 RMK AO2 T03200201 =
2015-06-30 15:55 METAR KEZF 301955Z AUTO 21010G15KT 10SM SCT046 32/19 A2981 RMK AO2 T03190194 =
2015-06-30 15:35 METAR KEZF 301935Z AUTO 19008KT 10SM SCT046 SCT110 32/21 A2983 RMK AO2 T03190211
                 =
2015-06-30 15:15 METAR KEZF 301915Z AUTO 22011G14KT 10SM SCT042 SCT050 SCT110 32/20 A2984 RMK AO2
                 T03200203 =
2015-06-30 14:55 METAR KEZF 301855Z AUTO 21007KT 10SM SCT044 SCT055 31/21 A2985 RMK AO2 T03130208
                 =
2015-06-30 14:35 METAR KEZF 301835Z AUTO 21010KT 170V230 10SM SCT044 SCT050 32/21 A2985 RMK AO2
                 T03160206 =
2015-06-30 14:15 METAR KEZF 301815Z AUTO 22009KT 10SM SCT044 SCT050 SCT070 32/21 A2986 RMK AO2
                 T03170205 =
2015-06-30 13:55 METAR KEZF 301755Z AUTO 23008KT 10SM SCT044 SCT050 31/20 A2986 RMK AO2 T03120204
                 10315 20237 =
2015-06-30 13:35 METAR KEZF 301735Z AUTO 20011KT 10SM SCT049 31/20 A2987 RMK AO2 T03070203 =
2015-06-30 13:15 METAR KEZF 301715Z AUTO 23006KT 10SM CLR 31/21 A2987 RMK AO2 T03100207 =
2015-06-30 12:55 METAR KEZF 301655Z AUTO 26008KT 10SM CLR 31/21 A2988 RMK AO2 T03080207 =
2015-06-30 12:35 METAR KEZF 301635Z AUTO 22005KT 10SM CLR 30/20 A2988 RMK AO2 T03040201 =
2015-06-30 12:15 METAR KEZF 301615Z AUTO 20008KT 10SM SCT090 30/20 A2988 RMK AO2 T03040197 =
2015-06-30 11:55 METAR KEZF 301555Z AUTO 22010KT 10SM SCT090 30/20 A2990 RMK AO2 T03000200 =
2015-06-30 11:35 METAR KEZF 301535Z AUTO 20010KT 10SM SCT090 30/19 A2990 RMK AO2 T02980194 =
2015-06-30 11:15 METAR KEZF 301515Z AUTO 19010KT 10SM CLR 30/20 A2989 RMK AO2 T02960201 =
2015-06-30 10:55 METAR KEZF 301455Z AUTO 20008KT 10SM SCT100 29/20 A2990 RMK AO2 T02850200 =
2015-06-30 10:35 METAR KEZF 301435Z AUTO 21004KT 10SM SCT100 28/21 A2990 RMK AO2 T02750205 =
2015-06-30 10:15 METAR KEZF 301415Z AUTO 23004KT 10SM SCT090 27/21 A2990 RMK AO2 T02680206 =
2015-06-30 09:35 METAR KEZF 301335Z AUTO 18005KT 10SM BKN090 25/21 A2991 RMK AO2 T02540207 =
2015-06-30 09:15 METAR KEZF 301315Z AUTO 18006KT 10SM SCT090 25/21 A2991 RMK AO2 T02500205 =
2015-06-30 08:55 METAR KEZF 301255Z AUTO 19006KT 10SM SCT090 25/21 A2991 RMK AO2 T02490206 =
2015-06-30 08:35 METAR KEZF 301235Z AUTO 19006KT 10SM SCT090 SCT110 25/21 A2991 RMK AO2 T02470208
                 =
2015-06-30 08:15 METAR KEZF 301215Z AUTO 17006KT 10SM SCT110 24/21 A2991 RMK AO2 T02380208 =
2015-06-30 07:55 METAR KEZF 301155Z AUTO 16006KT 10SM CLR 24/22 A2990 RMK AO2 T02400220 10240
                 20205 =
2015-06-30 07:35 METAR KEZF 301135Z AUTO 15004KT 10SM CLR 23/22 A2990 RMK AO2 T02310220 =
2015-06-30 07:15 METAR KEZF 301115Z AUTO 15004KT 10SM CLR 23/22 A2990 RMK AO2 T02250217 =
2015-06-30 06:55 METAR KEZF 301055Z AUTO 14003KT 10SM CLR 22/22 A2990 RMK AO2 T02190215 =
2015-06-30 06:35 METAR KEZF 301035Z AUTO 16004KT 10SM CLR 22/21 A2990 RMK AO2 T02160213 =
2015-06-30 06:15 METAR KEZF 301015Z AUTO 16005KT 10SM CLR 22/21 A2990 RMK AO2 T02150211 =
2015-06-30 05:55 METAR KEZF 300955Z AUTO 16005KT 10SM CLR 21/21 A2989 RMK AO2 T02130210 =
2015-06-30 05:35 METAR KEZF 300935Z AUTO 16005KT 10SM CLR 21/21 A2989 RMK AO2 T02110209 =
2015-06-30 05:15 METAR KEZF 300915Z AUTO 15004KT 10SM CLR 21/21 A2989 RMK AO2 T02110208 =
2015-06-30 04:55 METAR KEZF 300855Z AUTO 15004KT 10SM CLR 21/21 A2989 RMK AO2 T02110210 =
2015-06-30 04:35 METAR KEZF 300835Z AUTO 16003KT 10SM CLR 21/21 A2989 RMK AO2 T02100206 =
2015-06-30 04:15 METAR KEZF 300815Z AUTO 16004KT 10SM CLR 21/21 A2989 RMK AO2 T02110205 =
2015-06-30 03:35 METAR KEZF 300735Z AUTO 16003KT 10SM CLR 22/20 A2989 RMK AO2 T02150202 =
2015-06-30 03:15 METAR KEZF 300715Z AUTO 15004KT 10SM CLR 21/19 A2989 RMK AO2 T02110191 =
2015-06-30 02:55 METAR KEZF 300655Z AUTO 15004KT 10SM CLR 21/19 A2990 RMK AO2 T02120191 =
2015-06-30 02:35 METAR KEZF 300635Z AUTO 15003KT 10SM CLR 21/19 A2991 RMK AO2 T02100189 =
2015-06-30 02:15 METAR KEZF 300615Z AUTO 15004KT 10SM CLR 21/18 A2991 RMK AO2 T02120183 =
2015-06-30 01:35 METAR KEZF 300535Z AUTO 00000KT 10SM CLR 21/18 A2992 RMK AO2 T02090179 =
2015-06-30 01:15 METAR KEZF 300515Z AUTO 14003KT 10SM CLR 21/18 A2992 RMK AO2 T02120182 =
2015-06-30 00:55 METAR KEZF 300455Z AUTO 00000KT 10SM CLR 21/18 A2993 RMK AO2 T02120181 =
2015-06-30 00:35 METAR KEZF 300435Z AUTO 00000KT 10SM CLR 22/18 A2993 RMK AO2 T02150180 =
2015-06-30 00:15 METAR KEZF 300415Z AUTO 15003KT 10SM CLR 22/18 A2993 RMK AO2 T02210176 =
2015-06-29 23:55 METAR KEZF 300355Z AUTO 16005KT 10SM CLR 22/18 A2994 RMK AO2 T02200175 =
2015-06-29 23:35 METAR KEZF 300335Z AUTO 14004KT 10SM CLR 22/17 A2994 RMK AO2 T02200173 =
2015-06-29 23:15 METAR KEZF 300315Z AUTO 15006KT 10SM CLR 21/18 A2993 RMK AO2 T02110180 =
2015-06-29 22:55 METAR KEZF 300255Z AUTO 10004KT 10SM CLR 22/18 A2994 RMK AO2 T02160181 =
2015-06-29 22:35 METAR KEZF 300235Z AUTO 00000KT 10SM CLR 22/18 A2994 RMK AO2 T02160180 =
2015-06-29 22:15 METAR KEZF 300215Z AUTO 13003KT 10SM CLR 22/18 A2994 RMK AO2 T02200176 =
2015-06-29 21:55 METAR KEZF 300155Z AUTO 00000KT 10SM CLR 22/18 A2994 RMK AO2 T02200175 =

Support USWX by starting your Amazon purchase here.